< < Back
Terminal Aerodrome Forecast


Current Version              Previous Versions:   1  2  3  4  5  6  7  8  9  

Terminal Aerodrome Forecast

653
FTUS42 KTAE 042321
TAFABY
TAF
KABY 042321Z 0500/0524 09006KT P6SM BKN080
     FM050100 11006KT P6SM SKC=



Latest METAR

151
SAUS70 KWBC 050056
MTRABY
METAR KABY 050053Z AUTO 11005KT 10SM FEW070 24/13 A3025 RMK AO2 SLP240
T02390128


USA.gov is the U.S. government's official web portal to all federal, state and local government web resources and services.